Airfield :
LOGIN :

Register | Disclaimer

   EN    FR    IT 

 










Legend :    VFR   Marginal VFR   IFR   Intensive IFR   Very Intensive IFR
Visi :
Ceiling :
>= 8 km
>= 3000ft
5 to 8 km
1000 to 3000 ft
1500m to 5 km
500 to 1000 ft
800 to 1500m
200 to 500 ft
< 800m
< 200 ft
Symbols :   Thunderstorms  Fog  Heavy snow  Heavy precipitations  Wind > 20 kt
SIGMETs :     Misc.  Thunderstorms  Icing  Turbulence  Mountain Waves  Volcanic Ashes






- Airport Elevation : 80 ft
- IATA code : LPL


EGGP - Liverpool John Lennon

CURRENT METAR :
  • 281620Z 11006KT 070V140 CAVOK 25/09 Q1030

EXPIRED METARs :
  • 281550Z 11007KT 080V140 CAVOK 25/09 Q1030
  • 281520Z 11005KT 070V140 CAVOK 24/08 Q1031
  • 281450Z 11006KT 060V160 CAVOK 25/09 Q1031
  • 281420Z 13005KT 090V180 CAVOK 24/09 Q1031
  • 281350Z 13006KT 050V190 CAVOK 24/09 Q1032
  • 281320Z 15006KT 090V210 CAVOK 24/10 Q1032

TAF TAF EGGP
Valid from the 28 at 12:00 until the 29 at 12:00 UTC


281054Z 2812/2912 15006KT CAVOK
ATIS : +44 151 907 2000 (option 5 or ext 5150)
Met : +44 871 750 5150



MET'MAP, your aeronautical weather chart ! - Copyright ORBIFLY December 2007 - Disclaimer

ORBIFLY MET'MAP TEAM :

Programming & Development : Alexandra Zaïnal
Concept & original design : Baudouin d'Aumeries
Assistance for programming : Marc-Olivier Méhu
Technical & hardware support : Manuel Goepfert

Contact : metmap@orbifly.com




SOURCES & CREDITS :

   NOAA